Time;durP1;ratioP1;P1;durP2;ratioP2;P2;SDS_P1;SDS_P2;PMS_P1;PMS_P2;Temp;Humidity;BMP_temperature;BMP_pressure;BME280_temperature;BME280_humidity;BME280_pressure;Samples;Min_cycle;Max_cycle;Signal;HPM_P1;HPM_P2
2023/03/25 00:01:42;;;;;;;11.68;1.30;;;7.40;99.90;;;;;;5106737;28;20043;-56
2023/03/25 00:04:11;;;;;;;9.77;2.17;;;7.40;99.90;;;;;;5102965;28;20050;-57
2023/03/25 00:06:42;;;;;;;16.40;1.80;;;7.40;99.90;;;;;;5105128;28;20043;-58
2023/03/25 00:09:10;;;;;;;11.93;2.03;;;7.40;99.90;;;;;;5102558;28;20487;-63
2023/03/25 00:11:37;;;;;;;6.28;1.20;;;7.40;99.90;;;;;;5102912;28;20070;-57
2023/03/25 00:14:05;;;;;;;7.93;1.52;;;7.40;99.90;;;;;;5102771;28;20047;-59
2023/03/25 00:16:33;;;;;;;15.63;1.42;;;7.40;99.90;;;;;;5087536;28;20051;-65
2023/03/25 00:19:01;;;;;;;7.65;0.88;;;;;;;;;;5078936;28;20040;-59
2023/03/25 00:21:32;;;;;;;14.07;1.58;;;7.40;99.90;;;;;;5107275;28;20062;-57
2023/03/25 00:24:00;;;;;;;15.65;2.22;;;7.40;99.90;;;;;;5096132;28;20055;-63
2023/03/25 00:26:28;;;;;;;9.40;1.23;;;7.40;99.90;;;;;;5108603;28;20051;-57
2023/03/25 00:28:56;;;;;;;8.77;1.77;;;7.40;99.90;;;;;;5089797;28;20043;-57
2023/03/25 00:31:24;;;;;;;10.07;1.40;;;7.40;99.90;;;;;;5088844;28;20047;-58
2023/03/25 00:33:51;;;;;;;11.77;1.17;;;7.40;99.90;;;;;;5103561;28;20048;-61
2023/03/25 00:36:19;;;;;;;9.60;2.25;;;7.40;99.90;;;;;;5059214;28;20044;-56
2023/03/25 00:38:48;;;;;;;7.53;1.17;;;7.40;99.90;;;;;;5089663;28;20043;-59
2023/03/25 00:41:21;;;;;;;5.97;1.90;;;8.10;99.90;;;;;;5107164;28;20052;-57
2023/03/25 00:43:51;;;;;;;8.52;1.23;;;7.40;99.90;;;;;;5083262;28;20046;-56
2023/03/25 00:46:21;;;;;;;18.15;1.67;;;7.40;99.90;;;;;;5074141;28;20051;-57
2023/03/25 00:48:49;;;;;;;;;;;7.40;99.90;;;;;;5103698;28;20059;-60
2023/03/25 00:51:20;;;;;;;5.80;0.75;;;7.40;99.90;;;;;;5106936;28;19927;-54
2023/03/25 00:53:53;;;;;;;16.52;1.40;;;7.40;99.90;;;;;;5101032;28;20416;-56
2023/03/25 00:56:23;;;;;;;8.60;1.27;;;7.40;99.90;;;;;;5100771;28;20325;-56
2023/03/25 00:58:51;;;;;;;3.70;0.68;;;7.40;99.90;;;;;;5101638;28;20200;-56
2023/03/25 01:01:25;;;;;;;12.52;1.73;;;7.40;99.90;;;;;;5084975;28;20510;-56
2023/03/25 01:03:58;;;;;;;17.08;1.83;;;7.40;99.90;;;;;;5096738;28;20048;-58
2023/03/25 01:06:32;;;;;;;9.90;1.52;;;7.40;99.90;;;;;;5084786;28;20044;-55
2023/03/25 01:09:03;;;;;;;8.55;1.30;;;7.30;99.90;;;;;;5079310;28;20043;-56
2023/03/25 01:11:37;;;;;;;8.35;0.95;;;7.30;99.90;;;;;;5105461;28;20039;-56
2023/03/25 01:14:07;;;;;;;10.32;1.17;;;7.30;99.90;;;;;;5104510;28;20047;-56
2023/03/25 01:16:35;;;;;;;8.43;1.52;;;7.30;99.90;;;;;;5106114;28;20044;-54
2023/03/25 01:19:02;;;;;;;6.70;0.85;;;7.30;99.90;;;;;;5098650;28;20043;-56
2023/03/25 01:21:35;;;;;;;7.03;0.75;;;7.30;99.90;;;;;;5100794;28;20046;-56
2023/03/25 01:24:04;;;;;;;6.10;1.08;;;7.20;99.90;;;;;;5092591;28;20372;-57
2023/03/25 01:26:31;;;;;;;1.88;0.50;;;7.30;99.90;;;;;;5108247;28;20200;-57
2023/03/25 01:28:59;;;;;;;5.03;0.73;;;7.30;99.90;;;;;;5103003;28;20051;-56
2023/03/25 01:31:28;;;;;;;5.05;0.52;;;7.30;99.90;;;;;;5110328;28;20039;-57
2023/03/25 01:33:57;;;;;;;7.13;0.50;;;7.30;99.90;;;;;;5110687;28;20050;-55
2023/03/25 01:36:28;;;;;;;4.13;0.80;;;7.30;99.90;;;;;;5091920;28;20044;-57
2023/03/25 01:38:57;;;;;;;4.43;0.63;;;7.30;99.90;;;;;;5080798;28;20036;-56
2023/03/25 01:41:27;;;;;;;8.25;1.20;;;7.40;99.90;;;;;;5107026;28;20051;-57
2023/03/25 01:44:28;;;;;;;12.50;1.05;;;7.40;99.90;;;;;;5075947;28;20381;-56
2023/03/25 01:47:02;;;;;;;3.95;1.45;;;7.40;99.90;;;;;;5103462;28;20043;-58
2023/03/25 01:49:43;;;;;;;5.70;0.80;;;7.40;99.90;;;;;;5087537;28;20044;-57
2023/03/25 01:52:17;;;;;;;5.97;0.45;;;7.40;99.90;;;;;;5110682;28;20487;-60
2023/03/25 01:54:46;;;;;;;6.63;0.65;;;7.40;99.90;;;;;;5109062;28;20050;-57
2023/03/25 01:57:18;;;;;;;2.75;0.80;;;7.40;99.90;;;;;;5096131;28;20043;-57
2023/03/25 01:59:47;;;;;;;7.18;1.92;;;7.40;99.90;;;;;;5101621;28;20040;-55
2023/03/25 02:02:17;;;;;;;2.63;0.50;;;7.40;99.90;;;;;;5110123;28;20048;-57
2023/03/25 02:04:57;;;;;;;;;;;7.40;99.90;;;;;;5105948;28;20059;-58
2023/03/25 02:07:31;;;;;;;5.65;1.42;;;7.40;99.90;;;;;;5064462;28;19920;-57
2023/03/25 02:10:07;;;;;;;7.45;1.45;;;7.40;99.90;;;;;;5095882;28;20047;-58
2023/03/25 02:12:34;;;;;;;5.10;0.70;;;7.40;99.90;;;;;;5109575;28;20395;-57
2023/03/25 02:15:05;;;;;;;1.85;0.40;;;7.40;99.90;;;;;;5109326;28;20040;-58
2023/03/25 02:18:15;;;;;;;2.88;0.70;;;7.40;99.90;;;;;;5094894;28;20140;-57
2023/03/25 02:21:02;;;;;;;6.50;1.02;;;7.40;99.90;;;;;;5046937;28;20555;-56
2023/03/25 02:23:56;;;;;;;2.72;0.50;;;7.50;99.90;;;;;;5029177;28;20045;-60
2023/03/25 02:26:43;;;;;;;2.08;0.28;;;7.40;99.90;;;;;;5057115;28;20047;-58
2023/03/25 02:29:48;;;;;;;4.70;0.77;;;7.50;99.90;;;;;;5068071;28;20054;-56
2023/03/25 02:32:37;;;;;;;4.10;0.93;;;7.50;99.90;;;;;;5105139;28;20035;-55
2023/03/25 02:35:22;;;;;;;8.70;0.75;;;7.40;99.90;;;;;;5093113;28;20051;-55
2023/03/25 02:38:23;;;;;;;2.28;0.20;;;7.50;99.90;;;;;;5096220;28;20398;-56
2023/03/25 02:41:24;;;;;;;4.68;0.60;;;7.50;99.90;;;;;;5083848;28;20644;-58
2023/03/25 02:44:06;;;;;;;2.85;0.52;;;7.50;99.90;;;;;;5091850;28;20612;-58
2023/03/25 02:46:35;;;;;;;5.40;0.73;;;7.40;99.90;;;;;;5096495;28;20036;-59
2023/03/25 02:49:05;;;;;;;4.13;0.32;;;7.40;99.90;;;;;;5103340;28;20219;-59
2023/03/25 02:52:07;;;;;;;3.22;0.65;;;7.40;99.90;;;;;;5111844;28;20051;-57
2023/03/25 02:54:38;;;;;;;6.57;1.13;;;7.30;99.90;;;;;;5064709;28;20154;-63
2023/03/25 02:57:07;;;;;;;5.65;1.05;;;7.40;99.90;;;;;;5088760;28;20055;-59
2023/03/25 02:59:37;;;;;;;6.32;0.95;;;7.40;99.90;;;;;;5092704;28;20036;-58
2023/03/25 03:02:06;;;;;;;;;;;7.40;99.90;;;;;;5110829;28;20039;-63
2023/03/25 03:04:50;;;;;;;2.60;0.68;;;7.40;99.90;;;;;;5092316;28;19927;-57
2023/03/25 03:07:35;;;;;;;5.05;0.52;;;7.40;99.90;;;;;;5103442;28;20032;-58
2023/03/25 03:10:03;;;;;;;5.07;0.40;;;7.40;99.90;;;;;;5096072;28;20066;-56
2023/03/25 03:12:34;;;;;;;3.38;0.55;;;7.50;99.90;;;;;;5111287;28;20036;-56
2023/03/25 03:15:16;;;;;;;1.98;0.40;;;7.40;99.90;;;;;;5111630;28;20073;-56
2023/03/25 03:18:14;;;;;;;4.32;0.45;;;7.40;99.90;;;;;;5101627;28;20491;-56
2023/03/25 03:21:06;;;;;;;1.98;0.40;;;7.40;99.90;;;;;;5093240;28;20055;-56
2023/03/25 03:23:59;;;;;;;5.22;0.57;;;7.40;99.90;;;;;;5109110;28;20044;-56
2023/03/25 03:27:01;;;;;;;2.20;0.45;;;7.50;99.90;;;;;;5098516;28;20051;-61
2023/03/25 03:29:33;;;;;;;4.13;0.60;;;7.50;99.90;;;;;;5106879;28;20046;-56
2023/03/25 03:32:03;;;;;;;6.40;0.68;;;7.40;99.90;;;;;;5089372;28;20040;-56
2023/03/25 03:34:43;;;;;;;7.90;0.98;;;7.40;99.90;;;;;;5109689;28;20055;-55
2023/03/25 03:37:20;;;;;;;4.80;0.60;;;7.40;99.90;;;;;;5106032;28;20052;-57
2023/03/25 03:39:49;;;;;;;1.58;0.30;;;7.40;99.90;;;;;;5103682;28;20051;-58
2023/03/25 03:42:42;;;;;;;4.90;0.70;;;7.40;99.90;;;;;;5108569;28;20044;-56
2023/03/25 03:45:20;;;;;;;4.97;0.40;;;7.40;99.90;;;;;;5109426;28;20036;-56
2023/03/25 03:47:53;;;;;;;3.97;0.98;;;7.40;99.90;;;;;;5108989;28;20048;-58
2023/03/25 03:50:27;;;;;;;4.88;0.50;;;7.40;99.90;;;;;;5105481;28;20035;-57
2023/03/25 03:53:18;;;;;;;2.65;0.47;;;7.40;99.90;;;;;;5110113;28;20054;-56
2023/03/25 03:55:51;;;;;;;2.20;0.20;;;7.30;99.90;;;;;;5099725;28;20052;-57
2023/03/25 03:58:29;;;;;;;3.30;0.30;;;7.30;99.90;;;;;;5111427;28;20052;-57
2023/03/25 04:01:04;;;;;;;1.17;0.40;;;7.30;99.90;;;;;;5102562;28;20048;-55
2023/03/25 04:03:55;;;;;;;4.00;0.63;;;7.30;99.90;;;;;;5093355;28;20040;-56
2023/03/25 04:06:29;;;;;;;3.00;0.45;;;7.30;99.90;;;;;;5109762;28;20399;-56
2023/03/25 04:09:06;;;;;;;2.05;0.20;;;7.30;99.90;;;;;;5110481;28;20399;-56
2023/03/25 04:11:43;;;;;;;1.60;0.20;;;7.30;99.90;;;;;;5109880;28;20430;-56
2023/03/25 04:14:13;;;;;;;0.85;0.20;;;7.30;99.90;;;;;;5109371;28;20039;-57
2023/03/25 04:16:44;;;;;;;2.17;0.50;;;7.30;99.90;;;;;;5096757;28;20048;-56
2023/03/25 04:19:18;;;;;;;3.67;0.52;;;7.30;99.90;;;;;;5108914;28;20426;-57
2023/03/25 04:21:46;;;;;;;2.55;0.13;;;7.30;99.90;;;;;;5110318;28;20059;-56
2023/03/25 04:24:18;;;;;;;2.28;0.25;;;7.20;99.90;;;;;;5101937;28;20044;-57
2023/03/25 04:26:48;;;;;;;1.48;0.65;;;7.30;99.90;;;;;;5096627;28;20411;-56
2023/03/25 04:29:16;;;;;;;;;;;7.30;99.90;;;;;;5079911;28;20047;-55
2023/03/25 04:31:48;;;;;;;1.40;0.20;;;7.30;99.90;;;;;;5091780;28;19924;-56
2023/03/25 04:34:19;;;;;;;2.25;0.32;;;7.40;99.90;;;;;;5108945;28;20044;-55
2023/03/25 04:36:48;;;;;;;1.58;0.20;;;7.40;99.90;;;;;;5109609;28;20051;-57
2023/03/25 04:39:21;;;;;;;2.35;0.35;;;7.40;99.90;;;;;;5111653;28;20048;-57
2023/03/25 04:41:49;;;;;;;1.55;0.15;;;7.40;99.90;;;;;;5098681;28;20415;-55
2023/03/25 04:44:17;;;;;;;1.85;0.30;;;7.50;99.90;;;;;;5108443;28;20434;-55
2023/03/25 04:46:45;;;;;;;0.47;0.28;;;7.50;99.90;;;;;;5079178;28;20048;-58
2023/03/25 04:49:19;;;;;;;0.30;0.15;;;7.50;99.90;;;;;;5107483;28;20050;-56
2023/03/25 04:51:52;;;;;;;5.47;0.30;;;7.50;99.90;;;;;;5086493;28;20051;-56
2023/03/25 04:54:22;;;;;;;3.60;0.40;;;7.50;99.90;;;;;;5110764;28;20044;-56
2023/03/25 04:56:51;;;;;;;4.57;0.22;;;7.50;99.90;;;;;;5103247;28;20044;-56
2023/03/25 04:59:20;;;;;;;0.55;0.40;;;7.50;99.90;;;;;;5089407;28;20055;-58
2023/03/25 05:01:48;;;;;;;1.40;0.15;;;7.50;99.90;;;;;;5114700;28;20040;-57
2023/03/25 05:04:17;;;;;;;3.05;0.40;;;7.50;99.90;;;;;;5114174;28;20038;-57
2023/03/25 05:06:50;;;;;;;1.90;0.80;;;7.50;99.90;;;;;;5103033;28;20433;-57
2023/03/25 05:09:20;;;;;;;1.95;0.40;;;7.50;99.90;;;;;;5113996;28;20044;-56
2023/03/25 05:11:50;;;;;;;2.03;0.75;;;7.60;99.90;;;;;;5115346;28;20043;-56
2023/03/25 05:14:19;;;;;;;3.90;0.20;;;7.50;99.90;;;;;;5115010;28;20051;-57
2023/03/25 05:16:48;;;;;;;0.57;0.13;;;7.50;99.90;;;;;;5114141;28;20055;-60
2023/03/25 05:19:17;;;;;;;1.38;0.40;;;7.50;99.90;;;;;;5115045;28;20044;-57
2023/03/25 05:21:47;;;;;;;2.03;0.63;;;7.50;99.90;;;;;;5113787;28;20042;-57
2023/03/25 05:24:14;;;;;;;1.63;0.85;;;7.50;99.90;;;;;;5114962;28;20043;-58
2023/03/25 05:26:42;;;;;;;1.33;0.13;;;7.50;99.90;;;;;;5113710;28;20480;-60
2023/03/25 05:29:12;;;;;;;3.00;0.55;;;7.50;99.90;;;;;;5114894;28;20059;-66
2023/03/25 05:31:43;;;;;;;0.88;0.30;;;7.50;99.90;;;;;;5113784;28;20048;-65
2023/03/25 05:34:13;;;;;;;2.10;0.40;;;7.40;99.90;;;;;;5114721;28;20044;-61
2023/03/25 05:36:41;;;;;;;2.60;0.32;;;7.40;99.90;;;;;;5096609;28;20055;-59
2023/03/25 05:39:09;;;;;;;1.95;0.30;;;7.40;99.90;;;;;;5114402;28;20505;-58
2023/03/25 05:41:37;;;;;;;1.65;0.35;;;7.30;99.90;;;;;;5114658;28;20399;-58
2023/03/25 05:44:06;;;;;;;3.03;0.52;;;7.30;99.90;;;;;;5113795;28;20039;-56
2023/03/25 05:46:34;;;;;;;6.05;0.50;;;7.30;99.90;;;;;;5114422;28;20059;-57
2023/03/25 05:49:02;;;;;;;2.67;0.93;;;7.30;99.90;;;;;;5103139;28;20039;-57
2023/03/25 05:51:36;;;;;;;6.03;0.82;;;7.40;99.90;;;;;;5106145;28;20051;-57
2023/03/25 05:54:09;;;;;;;3.42;0.73;;;7.30;99.90;;;;;;5095070;28;20036;-57
2023/03/25 05:56:38;;;;;;;3.78;0.70;;;7.40;99.90;;;;;;5095075;28;20510;-58
2023/03/25 05:59:09;;;;;;;4.65;0.40;;;7.30;99.90;;;;;;5106712;28;20047;-56
2023/03/25 06:01:37;;;;;;;0.93;0.30;;;7.40;99.90;;;;;;5104791;28;20044;-55
2023/03/25 06:04:08;;;;;;;5.25;0.50;;;7.40;99.90;;;;;;5099228;28;20295;-58
2023/03/25 06:06:37;;;;;;;2.95;0.40;;;7.40;99.90;;;;;;5102881;28;20043;-61
2023/03/25 06:09:05;;;;;;;1.83;0.45;;;7.40;99.90;;;;;;5104996;28;20051;-58
2023/03/25 06:11:36;;;;;;;3.83;1.23;;;7.40;99.90;;;;;;5106161;28;20054;-56
2023/03/25 06:14:06;;;;;;;1.83;0.45;;;7.40;99.90;;;;;;5100120;28;20625;-58
2023/03/25 06:16:34;;;;;;;3.50;0.40;;;7.40;99.90;;;;;;5097915;28;20047;-57
2023/03/25 06:19:03;;;;;;;2.53;0.50;;;7.40;99.90;;;;;;5105470;28;20406;-57
2023/03/25 06:21:34;;;;;;;4.78;0.40;;;7.40;99.90;;;;;;5075210;28;20070;-56
2023/03/25 06:24:02;;;;;;;2.42;0.40;;;7.40;99.90;;;;;;5109245;28;20050;-59
2023/03/25 06:26:31;;;;;;;1.23;0.50;;;7.50;99.90;;;;;;5110404;28;20048;-58
2023/03/25 06:29:01;;;;;;;3.45;0.45;;;7.40;99.90;;;;;;5091796;28;20044;-55
2023/03/25 06:31:32;;;;;;;3.42;0.50;;;7.50;99.90;;;;;;5108199;28;20055;-57
2023/03/25 06:34:01;;;;;;;7.22;1.17;;;7.50;99.90;;;;;;5097892;28;20054;-56
2023/03/25 06:36:30;;;;;;;4.50;0.30;;;7.50;99.90;;;;;;5107983;28;20402;-57
2023/03/25 06:38:57;;;;;;;4.40;0.40;;;7.60;99.90;;;;;;5109929;28;20133;-57
2023/03/25 06:41:25;;;;;;;3.20;0.68;;;7.60;99.90;;;;;;5090136;28;20036;-57
2023/03/25 06:44:04;;;;;;;4.82;0.50;;;7.60;99.90;;;;;;5086301;28;20059;-57
2023/03/25 06:46:51;;;;;;;1.23;0.20;;;7.60;99.90;;;;;;5107114;28;20035;-57
2023/03/25 06:49:41;;;;;;;1.15;0.25;;;7.60;99.90;;;;;;5106113;28;20601;-57
2023/03/25 06:52:10;;;;;;;3.90;0.43;;;7.70;99.90;;;;;;5102368;28;20241;-56
2023/03/25 06:54:38;;;;;;;1.42;0.30;;;7.70;99.90;;;;;;5088577;28;20391;-57
2023/03/25 06:57:06;;;;;;;1.98;0.20;;;7.70;99.90;;;;;;5108015;28;20055;-56
2023/03/25 06:59:34;;;;;;;3.40;0.32;;;7.80;99.90;;;;;;5109894;28;20052;-55
2023/03/25 07:02:02;;;;;;;3.15;0.38;;;7.80;99.90;;;;;;5105222;28;20059;-57
2023/03/25 07:04:32;;;;;;;1.23;0.30;;;7.80;99.90;;;;;;5102812;28;20050;-57
2023/03/25 07:07:00;;;;;;;1.50;0.20;;;7.80;99.90;;;;;;5089841;28;20048;-57
2023/03/25 07:09:28;;;;;;;1.60;0.25;;;7.80;99.90;;;;;;5090949;28;20039;-55
2023/03/25 07:11:56;;;;;;;0.93;0.35;;;7.90;99.90;;;;;;5106545;28;20049;-57
2023/03/25 07:14:23;;;;;;;1.60;0.77;;;7.90;99.90;;;;;;5101289;28;20050;-57
2023/03/25 07:16:51;;;;;;;1.77;0.17;;;8.00;99.90;;;;;;5109003;28;20035;-56
2023/03/25 07:19:18;;;;;;;2.10;0.20;;;8.00;99.90;;;;;;5106294;28;20051;-56
2023/03/25 07:21:46;;;;;;;0.50;0.10;;;8.00;99.90;;;;;;5107940;28;20044;-56
2023/03/25 07:24:14;;;;;;;3.30;0.13;;;8.00;99.90;;;;;;5098551;28;20070;-57
2023/03/25 07:26:41;;;;;;;0.80;0.10;;;8.10;99.90;;;;;;5109454;28;20058;-56
2023/03/25 07:29:11;;;;;;;1.77;0.10;;;8.10;99.90;;;;;;5072866;28;20044;-56
2023/03/25 07:31:40;;;;;;;1.00;0.10;;;8.10;99.90;;;;;;5072611;28;20043;-57
2023/03/25 07:34:08;;;;;;;5.03;0.40;;;8.10;99.90;;;;;;5097953;28;20052;-56
2023/03/25 07:36:36;;;;;;;0.17;0.08;;;8.10;99.90;;;;;;5107264;28;20044;-58
2023/03/25 07:39:03;;;;;;;0.85;0.20;;;8.10;99.90;;;;;;5108866;28;20060;-57
2023/03/25 07:41:31;;;;;;;1.65;0.17;;;8.20;99.90;;;;;;5107582;28;20533;-59
2023/03/25 07:44:09;;;;;;;1.52;0.30;;;8.20;99.90;;;;;;5105624;28;20046;-57
2023/03/25 07:46:37;;;;;;;0.70;0.17;;;8.20;99.90;;;;;;5086689;28;20043;-57
2023/03/25 07:49:05;;;;;;;0.28;0.13;;;8.20;99.90;;;;;;5102106;28;20047;-55
2023/03/25 07:51:33;;;;;;;1.30;0.20;;;8.30;99.90;;;;;;5109005;28;20040;-58
2023/03/25 07:54:01;;;;;;;0.85;0.68;;;8.40;99.90;;;;;;5106234;28;20044;-58
2023/03/25 07:56:32;;;;;;;0.75;0.20;;;8.40;99.90;;;;;;5105206;28;20044;-56
2023/03/25 07:59:00;;;;;;;0.28;0.20;;;8.50;99.90;;;;;;5089484;28;20062;-56
2023/03/25 08:01:28;;;;;;;2.75;0.30;;;8.60;99.90;;;;;;5104113;28;20044;-57
2023/03/25 08:03:56;;;;;;;2.30;0.40;;;8.70;99.90;;;;;;5103571;28;20746;-57
2023/03/25 08:06:24;;;;;;;0.45;0.28;;;8.60;99.90;;;;;;5103288;28;20054;-64
2023/03/25 08:08:52;;;;;;;3.10;0.65;;;8.70;99.90;;;;;;5108744;28;20047;-59
2023/03/25 08:11:20;;;;;;;1.30;0.10;;;8.60;99.90;;;;;;5108275;28;20466;-55
2023/03/25 08:13:49;;;;;;;3.90;0.53;;;8.60;99.90;;;;;;5074965;28;20518;-56
2023/03/25 08:16:17;;;;;;;1.60;0.20;;;8.60;99.90;;;;;;5107414;28;20789;-57
2023/03/25 08:18:44;;;;;;;4.70;0.38;;;8.60;99.90;;;;;;5096293;28;20056;-56
2023/03/25 08:21:14;;;;;;;1.23;0.40;;;8.50;99.90;;;;;;5107584;28;20419;-56
2023/03/25 08:23:43;;;;;;;2.20;0.43;;;8.40;99.90;;;;;;5102523;28;20039;-57
2023/03/25 08:26:11;;;;;;;0.93;0.38;;;8.30;99.90;;;;;;5103869;28;20047;-55
2023/03/25 08:28:38;;;;;;;1.52;0.65;;;8.30;99.90;;;;;;5098728;28;20048;-56
2023/03/25 08:31:07;;;;;;;4.63;0.47;;;8.20;99.90;;;;;;5111240;28;20043;-55
2023/03/25 08:33:38;;;;;;;0.75;0.20;;;8.10;99.90;;;;;;5099857;28;20044;-55
2023/03/25 08:36:09;;;;;;;6.03;1.00;;;8.00;99.90;;;;;;5104542;28;20153;-57
2023/03/25 08:38:37;;;;;;;1.45;0.30;;;7.90;99.90;;;;;;5099213;28;20075;-57
2023/03/25 08:41:04;;;;;;;2.47;0.30;;;7.90;99.90;;;;;;5109558;28;20714;-55
2023/03/25 08:43:34;;;;;;;0.63;0.20;;;7.80;99.90;;;;;;5110209;28;20051;-57
2023/03/25 08:46:01;;;;;;;3.13;0.50;;;7.80;99.90;;;;;;5097816;28;20043;-56
2023/03/25 08:48:29;;;;;;;2.30;0.30;;;7.90;99.90;;;;;;5109203;28;20043;-57
2023/03/25 08:50:57;;;;;;;3.70;0.43;;;7.90;99.90;;;;;;5108257;28;20051;-66
2023/03/25 08:53:25;;;;;;;2.55;0.63;;;7.90;99.90;;;;;;5110518;28;20050;-62
2023/03/25 08:55:55;;;;;;;0.30;0.22;;;8.00;99.90;;;;;;5109278;28;20502;-66
2023/03/25 08:58:24;;;;;;;1.17;0.30;;;8.00;99.90;;;;;;5104459;28;20049;-59
2023/03/25 09:00:54;;;;;;;0.55;0.10;;;8.10;99.90;;;;;;5108963;28;20036;-62
2023/03/25 09:03:22;;;;;;;;;;;8.10;99.90;;;;;;5106761;28;20410;-59
2023/03/25 09:05:50;;;;;;;2.22;0.20;;;8.30;99.90;;;;;;5109442;28;19927;-62
2023/03/25 09:08:18;;;;;;;2.58;0.55;;;8.30;99.90;;;;;;5102626;28;20055;-63
2023/03/25 09:10:46;;;;;;;1.55;0.30;;;8.60;99.90;;;;;;5099413;28;20471;-55
2023/03/25 09:13:14;;;;;;;1.85;0.40;;;8.80;99.90;;;;;;5110265;28;20051;-57
2023/03/25 09:15:42;;;;;;;2.05;0.65;;;8.90;99.90;;;;;;5110201;28;20056;-55
2023/03/25 09:18:09;;;;;;;1.77;0.32;;;9.10;99.90;;;;;;5108455;28;20044;-57
2023/03/25 09:20:37;;;;;;;6.75;0.75;;;9.10;99.90;;;;;;5105735;28;20054;-58
2023/03/25 09:23:05;;;;;;;2.35;0.45;;;9.10;99.90;;;;;;5103242;28;20044;-56
2023/03/25 09:25:33;;;;;;;0.95;0.30;;;9.10;99.90;;;;;;5091134;28;20040;-58
2023/03/25 09:28:00;;;;;;;2.47;0.40;;;9.20;99.90;;;;;;5104645;28;20060;-60
2023/03/25 09:30:28;;;;;;;2.53;0.73;;;9.20;99.90;;;;;;5108922;28;20044;-57
2023/03/25 09:32:56;;;;;;;0.52;0.10;;;9.30;99.90;;;;;;5100483;28;20063;-60
2023/03/25 09:35:23;;;;;;;0.52;0.20;;;9.40;99.90;;;;;;5109770;28;20055;-58
2023/03/25 09:37:51;;;;;;;5.53;0.40;;;9.40;99.90;;;;;;5107864;28;20059;-57
2023/03/25 09:40:20;;;;;;;2.63;0.38;;;9.50;99.90;;;;;;5109647;28;20364;-56
2023/03/25 09:42:54;;;;;;;3.83;0.50;;;9.50;99.90;;;;;;5106882;28;20048;-56
2023/03/25 09:45:42;;;;;;;1.83;0.38;;;9.60;99.90;;;;;;5108834;28;20514;-58
2023/03/25 09:48:41;;;;;;;1.88;0.47;;;9.60;99.90;;;;;;5099650;28;20479;-57
2023/03/25 09:51:23;;;;;;;2.65;0.20;;;9.80;99.90;;;;;;5100171;28;20036;-57
2023/03/25 09:54:21;;;;;;;1.67;0.22;;;9.90;99.90;;;;;;5106878;28;20071;-57
2023/03/25 09:56:50;;;;;;;3.08;0.30;;;9.90;99.90;;;;;;5107936;28;20593;-57
2023/03/25 09:59:24;;;;;;;0.75;0.22;;;10.00;99.90;;;;;;5100542;28;20397;-57
2023/03/25 10:02:01;;;;;;;5.47;0.32;;;10.10;99.90;;;;;;5111066;28;20051;-57
2023/03/25 10:04:29;;;;;;;5.85;0.68;;;10.20;99.90;;;;;;5097793;28;20379;-64
2023/03/25 10:06:59;;;;;;;7.90;0.88;;;10.20;99.90;;;;;;5091594;28;20040;-57
2023/03/25 10:09:58;;;;;;;1.25;0.30;;;10.40;99.90;;;;;;5106437;28;20054;-58
2023/03/25 10:12:29;;;;;;;2.42;0.50;;;10.40;99.90;;;;;;5106335;28;20486;-57
2023/03/25 10:15:11;;;;;;;2.38;1.20;;;10.40;99.90;;;;;;5107394;28;20036;-58
2023/03/25 10:18:05;;;;;;;4.18;0.60;;;10.60;99.90;;;;;;5105774;28;20051;-58
2023/03/25 10:21:01;;;;;;;3.65;1.27;;;10.80;99.90;;;;;;5058133;28;20486;-57
2023/03/25 10:23:40;;;;;;;3.10;0.57;;;11.00;99.90;;;;;;5107694;28;20061;-57
2023/03/25 10:26:34;;;;;;;3.33;0.40;;;11.00;99.90;;;;;;5108508;28;20035;-59
2023/03/25 10:29:08;;;;;;;9.63;1.17;;;10.90;99.90;;;;;;5102648;28;20039;-58
2023/03/25 10:31:42;;;;;;;2.50;0.52;;;10.90;99.90;;;;;;5103011;28;20395;-58
2023/03/25 10:34:16;;;;;;;2.08;0.30;;;10.80;99.90;;;;;;5108835;28;20036;-57
2023/03/25 10:36:56;;;;;;;3.95;0.35;;;10.80;99.90;;;;;;5107612;28;20051;-58
2023/03/25 10:39:32;;;;;;;2.15;0.20;;;10.80;99.90;;;;;;5092810;28;20399;-59
2023/03/25 10:42:13;;;;;;;1.65;0.60;;;10.90;99.90;;;;;;5105248;28;20036;-64
2023/03/25 10:44:42;;;;;;;2.88;0.40;;;11.00;99.90;;;;;;5102960;28;20612;-56
2023/03/25 10:47:16;;;;;;;4.07;1.15;;;11.00;99.90;;;;;;5107423;28;20055;-59
2023/03/25 10:49:46;;;;;;;2.85;0.30;;;11.00;99.90;;;;;;5101752;28;20044;-58
2023/03/25 10:52:15;;;;;;;2.80;0.60;;;11.10;99.90;;;;;;5103106;28;20036;-59
2023/03/25 10:54:49;;;;;;;3.60;0.40;;;11.20;99.90;;;;;;5102282;28;20048;-58
2023/03/25 10:57:28;;;;;;;1.33;0.40;;;11.40;99.90;;;;;;5092827;28;20051;-57
2023/03/25 11:00:07;;;;;;;1.25;0.40;;;11.60;99.90;;;;;;5107742;28;20406;-58
2023/03/25 11:02:35;;;;;;;0.23;0.13;;;11.90;99.90;;;;;;5108527;28;20490;-55
2023/03/25 11:05:06;;;;;;;2.65;0.50;;;12.10;99.90;;;;;;5106246;28;20066;-58
2023/03/25 11:07:35;;;;;;;1.92;0.30;;;12.40;99.90;;;;;;5105531;28;20055;-56
2023/03/25 11:10:21;;;;;;;3.40;0.60;;;12.50;99.90;;;;;;5102836;28;20048;-58
2023/03/25 11:12:51;;;;;;;0.65;0.20;;;12.60;99.90;;;;;;5097531;28;20055;-56
2023/03/25 11:15:30;;;;;;;2.55;0.43;;;12.60;99.90;;;;;;5094920;28;20059;-56
2023/03/25 11:18:21;;;;;;;2.42;0.30;;;12.60;99.90;;;;;;5080075;28;20067;-56
2023/03/25 11:20:52;;;;;;;2.08;0.40;;;12.50;99.90;;;;;;5103813;28;20407;-57
2023/03/25 11:23:31;;;;;;;1.35;0.35;;;12.50;99.90;;;;;;5101737;28;20398;-58
2023/03/25 11:26:32;;;;;;;1.20;0.40;;;12.50;99.90;;;;;;5109388;28;20050;-59
2023/03/25 11:29:04;;;;;;;2.47;0.43;;;12.70;99.90;;;;;;5104919;28;20055;-59
2023/03/25 11:31:36;;;;;;;0.28;0.15;;;12.90;99.90;;;;;;5106132;28;20418;-57
2023/03/25 11:34:11;;;;;;;1.40;0.47;;;13.00;99.90;;;;;;5108118;28;20055;-57
2023/03/25 11:36:59;;;;;;;2.97;0.40;;;13.00;99.90;;;;;;5108029;28;20050;-59
2023/03/25 11:39:42;;;;;;;1.25;0.30;;;12.90;99.90;;;;;;5105734;28;20502;-60
2023/03/25 11:42:23;;;;;;;2.15;0.52;;;12.90;99.90;;;;;;5108634;28;20039;-58
2023/03/25 11:44:55;;;;;;;2.70;0.85;;;13.20;99.90;;;;;;5104546;28;20539;-57
2023/03/25 11:47:28;;;;;;;3.83;0.45;;;13.40;99.90;;;;;;5107419;28;20048;-58
2023/03/25 11:49:56;;;;;;;0.17;0.17;;;13.60;99.90;;;;;;5091407;28;20046;-57
2023/03/25 11:52:30;;;;;;;2.95;0.38;;;13.60;99.90;;;;;;5107225;28;20044;-59
2023/03/25 11:55:00;;;;;;;1.65;0.30;;;13.70;99.90;;;;;;5106275;28;20047;-58
2023/03/25 11:57:37;;;;;;;3.72;0.28;;;13.50;99.90;;;;;;5106162;28;20051;-58
2023/03/25 12:00:28;;;;;;;1.05;0.30;;;13.20;99.90;;;;;;5092872;28;20043;-57
2023/03/25 12:03:14;;;;;;;2.97;0.30;;;12.60;99.90;;;;;;5108138;28;20051;-57
2023/03/25 12:06:11;;;;;;;1.83;0.30;;;12.60;99.90;;;;;;5107911;28;20055;-59
2023/03/25 12:08:59;;;;;;;1.63;0.38;;;12.00;99.90;;;;;;5107653;28;20040;-57
2023/03/25 12:11:35;;;;;;;2.03;0.30;;;11.40;99.90;;;;;;5097839;28;20495;-57
2023/03/25 12:14:06;;;;;;;2.55;0.40;;;10.90;99.90;;;;;;5104782;28;20056;-57
2023/03/25 12:16:53;;;;;;;3.50;0.40;;;10.90;99.90;;;;;;5107679;28;20436;-57
2023/03/25 12:19:37;;;;;;;2.33;0.30;;;11.00;99.90;;;;;;5106639;28;20043;-58
2023/03/25 12:22:17;;;;;;;1.88;0.30;;;11.00;99.90;;;;;;5102029;28;20059;-57
2023/03/25 12:24:54;;;;;;;;;;;10.90;99.90;;;;;;5105184;28;20048;-58
2023/03/25 12:28:06;;;;;;;3.58;1.23;;;10.70;99.90;;;;;;5106133;28;19919;-58
2023/03/25 12:30:43;;;;;;;1.27;0.50;;;10.10;99.90;;;;;;4985831;28;20047;-57
2023/03/25 12:33:23;;;;;;;4.25;1.50;;;9.80;99.90;;;;;;4991328;28;20114;-58
2023/03/25 12:36:05;;;;;;;1.48;0.43;;;9.60;99.90;;;;;;5054329;28;20063;-58
2023/03/25 12:38:38;;;;;;;2.38;1.00;;;10.00;99.90;;;;;;5106617;28;20040;-57
2023/03/25 12:41:34;;;;;;;1.60;0.32;;;10.70;99.90;;;;;;5107400;28;20047;-59
2023/03/25 12:44:09;;;;;;;7.13;0.75;;;11.50;99.90;;;;;;5092329;28;20051;-59
2023/03/25 12:46:52;;;;;;;2.85;0.57;;;12.20;99.90;;;;;;5103832;28;20051;-60
2023/03/25 12:49:32;;;;;;;1.15;0.32;;;12.50;99.90;;;;;;5107615;28;20483;-59
2023/03/25 12:52:21;;;;;;;2.35;0.40;;;12.60;99.90;;;;;;5106936;28;20504;-62
2023/03/25 12:55:10;;;;;;;1.65;0.20;;;13.00;99.90;;;;;;5085905;28;20047;-64
2023/03/25 12:58:12;;;;;;;5.00;0.93;;;14.10;99.90;;;;;;5098763;28;20044;-61
2023/03/25 13:00:54;;;;;;;1.52;0.30;;;14.00;99.90;;;;;;5087566;28;20293;-60
2023/03/25 13:03:43;;;;;;;3.40;0.85;;;14.20;99.90;;;;;;5086554;28;20052;-60
2023/03/25 13:06:17;;;;;;;4.72;0.70;;;14.10;99.90;;;;;;5108203;28;20043;-60
2023/03/25 13:08:57;;;;;;;1.95;0.75;;;13.60;99.90;;;;;;5101081;28;20051;-60
2023/03/25 13:11:35;;;;;;;1.23;0.82;;;13.00;99.90;;;;;;5087451;28;20044;-60
2023/03/25 13:14:20;;;;;;;8.98;0.30;;;12.00;99.90;;;;;;5087688;28;20043;-63
2023/03/25 13:16:52;;;;;;;3.33;1.30;;;11.50;99.90;;;;;;5093344;28;20480;-59
2023/03/25 13:19:26;;;;;;;1.58;0.30;;;10.60;99.90;;;;;;5093771;28;20514;-59
2023/03/25 13:22:02;;;;;;;1.63;0.32;;;10.60;99.90;;;;;;5110628;28;20543;-58
2023/03/25 13:24:48;;;;;;;0.30;0.30;;;10.20;99.90;;;;;;5110700;28;20044;-61
2023/03/25 13:27:17;;;;;;;1.27;0.28;;;10.10;99.90;;;;;;5109303;28;20044;-58
2023/03/25 13:29:54;;;;;;;3.55;0.40;;;9.90;99.90;;;;;;5099706;28;20050;-59
2023/03/25 13:32:35;;;;;;;4.43;0.40;;;9.90;99.90;;;;;;5107386;28;20031;-59